Time;durP1;ratioP1;P1;durP2;ratioP2;P2;SDS_P1;SDS_P2;PMS_P1;PMS_P2;Temp;Humidity;BMP_temperature;BMP_pressure;BME280_temperature;BME280_humidity;BME280_pressure;Samples;Min_cycle;Max_cycle;Signal;HPM_P1;HPM_P2
2022/01/31 00:00:34;;;;;;;;;9.33;8.00;;;;;9.80;52.68;101833.97;5088883;27;45425;-77
2022/01/31 00:03:00;;;;;;;;;9.00;6.33;;;;;9.73;52.38;101814.66;5074796;27;45361;-76
2022/01/31 00:05:26;;;;;;;;;8.00;7.00;;;;;9.72;52.50;101822.00;5100731;27;45720;-76
2022/01/31 00:07:51;;;;;;;;;8.00;7.33;;;;;9.70;52.20;101801.31;5077511;28;46833;-76
2022/01/31 00:10:26;;;;;;;;;6.00;6.00;;;;;9.67;51.99;101777.88;5101452;27;45633;-78
2022/01/31 00:12:59;;;;;;;;;6.33;4.33;;;;;9.66;52.64;101769.84;5099777;27;45580;-76
2022/01/31 00:15:24;;;;;;;;;6.67;5.67;;;;;9.59;52.56;101764.19;5097496;27;45847;-75
2022/01/31 00:17:50;;;;;;;;;5.67;5.00;;;;;9.54;52.32;101759.25;5100728;27;45439;-76
2022/01/31 00:20:16;;;;;;;;;7.33;6.33;;;;;9.52;52.68;101764.06;5084758;28;45381;-77
2022/01/31 00:22:41;;;;;;;;;8.33;7.33;;;;;9.47;52.84;101747.28;5105957;27;45503;-78
2022/01/31 00:25:08;;;;;;;;;7.33;6.00;;;;;9.42;53.27;101760.69;5108526;27;45412;-76
2022/01/31 00:27:33;;;;;;;;;5.00;5.00;;;;;9.35;53.17;101767.88;5108453;27;45465;-76
2022/01/31 00:29:58;;;;;;;;;9.33;6.00;;;;;9.32;54.11;101760.03;5098515;27;45493;-75
2022/01/31 00:32:25;;;;;;;;;6.67;5.00;;;;;9.29;53.82;101753.00;5083327;28;45160;-76
2022/01/31 00:34:50;;;;;;;;;9.33;7.00;;;;;9.25;54.62;101751.69;5074633;28;45436;-76
2022/01/31 00:37:16;;;;;;;;;8.00;5.00;;;;;9.22;54.82;101764.84;5089412;27;47824;-75
2022/01/31 00:39:41;;;;;;;;;9.00;7.00;;;;;9.18;54.24;101743.28;5083963;27;45919;-77
2022/01/31 00:42:07;;;;;;;;;8.00;7.33;;;;;9.19;54.95;101760.56;5086722;27;45133;-77
2022/01/31 00:47:23;;;;;;;;;9.00;5.67;;;;;9.20;54.30;101773.22;5095576;27;46050;-77
2022/01/31 00:49:51;;;;;;;;;6.00;6.00;;;;;9.22;54.20;101757.50;5104826;27;45384;-77
2022/01/31 00:52:17;;;;;;;;;9.00;7.00;;;;;9.27;54.25;101757.81;5085008;28;45758;-77
2022/01/31 00:54:43;;;;;;;;;8.67;7.00;;;;;9.31;54.13;101767.41;5087015;27;45297;-76
2022/01/31 00:57:09;;;;;;;;;10.00;5.33;;;;;9.33;53.85;101768.06;5086509;27;46612;-76
2022/01/31 00:59:34;;;;;;;;;7.33;5.00;;;;;9.41;53.88;101736.22;5106189;27;45259;-76
2022/01/31 01:02:00;;;;;;;;;4.00;4.00;;;;;9.46;53.80;101728.31;5087558;27;45451;-78
2022/01/31 01:04:25;;;;;;;;;6.67;5.33;;;;;9.45;54.16;101718.41;5107317;27;45533;-75
2022/01/31 01:06:50;;;;;;;;;7.33;5.00;;;;;9.49;53.41;101711.53;5096657;27;46481;-77
2022/01/31 01:09:16;;;;;;;;;6.00;5.00;;;;;9.51;53.42;101714.97;5074315;28;44741;-76
2022/01/31 01:11:42;;;;;;;;;7.00;3.67;;;;;9.46;53.94;101707.28;5094951;27;45357;-75
2022/01/31 01:14:07;;;;;;;;;4.00;4.00;;;;;9.51;53.59;101709.47;5098968;27;45484;-78
2022/01/31 01:16:33;;;;;;;;;5.67;4.00;;;;;9.52;53.76;101695.59;5084803;28;45380;-76
2022/01/31 01:18:58;;;;;;;;;3.33;3.33;;;;;9.51;53.37;101693.91;5104891;27;45357;-78
2022/01/31 01:21:24;;;;;;;;;4.00;4.00;;;;;9.54;53.41;101689.94;5107578;27;44816;-75
2022/01/31 01:23:49;;;;;;;;;5.33;3.67;;;;;9.58;53.96;101682.22;5097642;27;45598;-76
2022/01/31 01:26:15;;;;;;;;;6.33;3.00;;;;;9.57;53.67;101662.22;5104127;27;46272;-76
2022/01/31 01:28:41;;;;;;;;;6.00;4.33;;;;;9.58;53.74;101643.88;5097102;27;45311;-76
2022/01/31 01:31:06;;;;;;;;;3.00;2.00;;;;;9.57;53.72;101632.09;5101436;27;45783;-76
2022/01/31 01:33:38;;;;;;;;;5.00;2.67;;;;;9.57;53.83;101634.81;5101353;27;45398;-75
2022/01/31 01:36:04;;;;;;;;;3.00;2.67;;;;;9.64;53.72;101618.50;5087149;27;46262;-75
2022/01/31 01:38:30;;;;;;;;;7.00;3.67;;;;;9.63;53.47;101620.41;5108750;27;45765;-76
2022/01/31 01:40:59;;;;;;;;;6.00;2.67;;;;;9.63;53.98;101619.56;5081016;28;45497;-76
2022/01/31 01:43:25;;;;;;;;;6.67;4.00;;;;;9.64;53.63;101633.06;5109160;27;45623;-76
2022/01/31 01:45:53;;;;;;;;;6.67;4.00;;;;;9.66;54.10;101625.53;5108071;27;46697;-77
2022/01/31 01:48:20;;;;;;;;;3.33;3.33;;;;;9.64;54.31;101616.63;5106548;27;45421;-77
2022/01/31 01:50:47;;;;;;;;;3.00;3.00;;;;;9.63;54.34;101614.09;5071698;28;45690;-76
2022/01/31 01:53:12;;;;;;;;;6.33;5.00;;;;;9.62;54.24;101594.03;5104510;27;45431;-76
2022/01/31 01:55:38;;;;;;;;;7.00;3.67;;;;;9.59;54.72;101608.09;5103533;27;45848;-78
2022/01/31 01:58:06;;;;;;;;;6.33;3.00;;;;;9.64;55.06;101613.03;5093441;27;45678;-77
2022/01/31 02:00:49;;;;;;;;;3.33;3.33;;;;;9.65;55.14;101612.84;5091181;27;45422;-77
2022/01/31 02:03:15;;;;;;;;;7.00;4.33;;;;;9.67;55.16;101605.31;5107465;27;44658;-77
2022/01/31 02:05:41;;;;;;;;;6.00;3.00;;;;;9.66;55.77;101609.09;5105061;27;45784;-76
2022/01/31 02:08:07;;;;;;;;;5.33;2.33;;;;;9.68;55.66;101593.31;5109839;27;45420;-77
2022/01/31 02:10:32;;;;;;;;;3.00;2.00;;;;;9.68;55.07;101589.72;5090882;28;45657;-78
2022/01/31 02:13:06;;;;;;;;;4.00;4.00;;;;;9.68;55.18;101585.09;5077908;28;44843;-76
2022/01/31 02:15:32;;;;;;;;;5.00;3.33;;;;;9.71;55.41;101572.94;5078398;28;45107;-76
2022/01/31 02:17:57;;;;;;;;;5.00;3.33;;;;;9.70;55.46;101561.13;5084656;27;45454;-75
2022/01/31 02:20:23;;;;;;;;;5.00;3.00;;;;;9.70;55.22;101569.34;5083135;27;45357;-76
2022/01/31 02:22:49;;;;;;;;;3.00;2.33;;;;;9.70;55.58;101565.72;5077669;28;45411;-76
2022/01/31 02:25:15;;;;;;;;;7.00;2.67;;;;;9.72;56.32;101572.75;5079380;27;45984;-75
2022/01/31 02:27:40;;;;;;;;;4.00;3.00;;;;;9.74;56.72;101571.72;5087740;28;44801;-75
2022/01/31 02:30:10;;;;;;;;;7.00;3.00;;;;;9.71;56.97;101546.41;5080849;27;45429;-76
2022/01/31 02:32:35;;;;;;;;;3.33;2.00;;;;;9.73;57.07;101548.97;5082632;28;45342;-74
2022/01/31 02:35:01;;;;;;;;;6.33;3.33;;;;;9.73;57.01;101538.00;5079977;28;45663;-75
2022/01/31 02:37:26;;;;;;;;;3.00;2.00;;;;;9.76;57.23;101542.25;5077970;28;45380;-76
2022/01/31 02:39:52;;;;;;;;;5.00;3.00;;;;;9.70;57.31;101543.81;5075727;28;45458;-75
2022/01/31 02:42:17;;;;;;;;;3.33;2.33;;;;;9.74;57.45;101558.03;5077314;27;45448;-75
2022/01/31 02:44:45;;;;;;;;;5.00;2.33;;;;;9.75;58.00;101543.31;5074067;28;45456;-76
2022/01/31 02:47:16;;;;;;;;;3.00;2.00;;;;;9.78;57.63;101538.28;5089173;28;44872;-75
2022/01/31 02:49:51;;;;;;;;;9.00;3.00;;;;;9.74;57.64;101522.41;5074781;27;45280;-76
2022/01/31 02:52:18;;;;;;;;;4.67;3.67;;;;;9.75;58.06;101516.75;5085434;28;45403;-76
2022/01/31 02:54:43;;;;;;;;;6.00;4.67;;;;;9.77;58.23;101524.78;5079683;28;45541;-75
2022/01/31 02:57:09;;;;;;;;;4.00;3.00;;;;;9.78;58.77;101513.63;5078996;27;45433;-74
2022/01/31 02:59:34;;;;;;;;;4.00;4.00;;;;;9.73;58.55;101510.63;5084111;28;45390;-75
2022/01/31 03:02:00;;;;;;;;;2.67;2.67;;;;;9.67;58.86;101482.06;5081016;28;45488;-74
2022/01/31 03:04:25;;;;;;;;;2.67;2.33;;;;;9.70;59.21;101481.69;5079073;28;46293;-74
2022/01/31 03:06:53;;;;;;;;;3.00;1.33;;;;;9.76;59.36;101471.91;5073605;28;45331;-75
2022/01/31 03:09:19;;;;;;;;;5.00;2.00;;;;;9.66;60.28;101466.66;5082468;28;45619;-74
2022/01/31 03:11:45;;;;;;;;;1.33;1.33;;;;;9.67;59.91;101456.53;5107351;27;44906;-76
2022/01/31 03:14:11;;;;;;;;;2.67;2.33;;;;;9.62;60.13;101459.00;5107834;27;45424;-76
2022/01/31 03:16:40;;;;;;;;;3.00;2.00;;;;;9.55;60.62;101453.44;5108265;27;45358;-75
2022/01/31 03:19:07;;;;;;;;;5.00;1.00;;;;;9.54;61.10;101458.03;5074047;27;45519;-75
2022/01/31 03:21:32;;;;;;;;;2.00;1.00;;;;;9.48;61.18;101475.19;5101315;27;45458;-75
2022/01/31 03:23:58;;;;;;;;;3.00;3.00;;;;;9.49;61.26;101470.56;5081306;28;47957;-73
2022/01/31 03:26:23;;;;;;;;;1.00;1.00;;;;;9.53;61.23;101466.44;5107835;27;45319;-76
2022/01/31 03:28:50;;;;;;;;;3.00;3.00;;;;;9.53;61.70;101466.44;5099936;27;45404;-77
2022/01/31 03:31:18;;;;;;;;;6.00;2.33;;;;;9.57;61.52;101454.09;5078234;27;47130;-75
2022/01/31 03:33:45;;;;;;;;;1.00;1.00;;;;;9.62;61.83;101459.00;5100829;27;45467;-75
2022/01/31 03:36:10;;;;;;;;;2.33;2.00;;;;;9.67;61.53;101457.41;5088648;27;44772;-76
2022/01/31 03:38:40;;;;;;;;;2.50;1.00;;;;;9.68;62.07;101448.16;5108215;27;45633;-74
2022/01/31 03:41:07;;;;;;;;;5.67;2.00;;;;;9.69;63.36;101449.00;5107804;27;45518;-76
2022/01/31 03:43:32;;;;;;;;;8.33;3.00;;;;;9.68;63.32;101439.94;5095247;27;45812;-72
2022/01/31 03:45:58;;;;;;;;;3.67;2.00;;;;;9.68;63.98;101437.19;5090015;27;45772;-72
2022/01/31 03:48:24;;;;;;;;;3.00;2.00;;;;;9.62;64.28;101437.94;5079687;27;45714;-73
2022/01/31 03:50:50;;;;;;;;;3.00;2.00;;;;;9.62;64.57;101445.31;5098681;27;45477;-74
2022/01/31 03:53:16;;;;;;;;;1.33;1.00;;;;;9.71;64.92;101427.75;5103155;27;45922;-75
2022/01/31 03:55:41;;;;;;;;;4.00;2.33;;;;;9.68;65.25;101420.75;5108793;27;45457;-75
2022/01/31 03:58:07;;;;;;;;;3.00;3.00;;;;;9.72;65.89;101434.94;5108998;27;45359;-75
2022/01/31 04:00:32;;;;;;;;;2.67;2.00;;;;;9.75;65.62;101445.53;5104603;27;45494;-75
2022/01/31 04:02:57;;;;;;;;;2.00;1.33;;;;;9.74;65.80;101442.97;5103995;27;45458;-75
2022/01/31 04:05:23;;;;;;;;;3.33;1.00;;;;;9.73;65.81;101461.31;5105627;27;45387;-76
2022/01/31 04:07:49;;;;;;;;;1.00;1.00;;;;;9.77;66.17;101450.81;5106471;27;45295;-75
2022/01/31 04:10:14;;;;;;;;;2.67;1.67;;;;;9.78;65.94;101447.91;5099849;27;45287;-76
2022/01/31 04:12:40;;;;;;;;;2.00;1.00;;;;;9.77;65.83;101434.38;5087907;27;45706;-75
2022/01/31 04:15:06;;;;;;;;;1.67;1.67;;;;;9.75;65.80;101441.94;5102480;27;45406;-77
2022/01/31 04:17:33;;;;;;;;;0.67;0.67;;;;;9.75;66.22;101448.28;5081758;27;45328;-74
2022/01/31 04:19:58;;;;;;;;;2.00;0.00;;;;;9.80;65.92;101450.44;5094554;27;45770;-71
2022/01/31 04:22:26;;;;;;;;;1.00;1.00;;;;;9.84;66.46;101446.31;5092634;27;46453;-72
2022/01/31 04:24:58;;;;;;;;;3.67;1.67;;;;;9.89;66.13;101452.06;5098743;27;45480;-72
2022/01/31 04:27:27;;;;;;;;;1.33;1.33;;;;;9.87;66.19;101452.25;5092533;27;45810;-73
2022/01/31 04:29:53;;;;;;;;;4.33;1.67;;;;;9.90;65.72;101453.78;5078389;27;47152;-71
2022/01/31 04:32:18;;;;;;;;;1.00;1.00;;;;;9.94;65.77;101441.41;5099737;27;45329;-72
2022/01/31 04:34:44;;;;;;;;;2.00;2.00;;;;;9.95;65.93;101450.47;5090899;27;45346;-74
2022/01/31 04:37:10;;;;;;;;;0.00;0.00;;;;;9.95;65.79;101465.00;5089580;27;45397;-73
2022/01/31 04:39:36;;;;;;;;;2.00;1.00;;;;;9.97;65.83;101473.91;5091157;27;45699;-73
2022/01/31 04:42:02;;;;;;;;;4.33;1.00;;;;;9.96;65.82;101469.47;5081174;27;47101;-73
2022/01/31 04:44:28;;;;;;;;;1.00;1.00;;;;;10.00;66.25;101469.91;5081625;27;45528;-72
2022/01/31 04:46:54;;;;;;;;;2.00;1.00;;;;;10.04;66.23;101447.47;5092773;27;45863;-74
2022/01/31 04:49:20;;;;;;;;;1.67;1.00;;;;;10.05;65.98;101462.84;5077153;28;45983;-75
2022/01/31 04:51:47;;;;;;;;;1.00;1.00;;;;;10.04;65.97;101436.50;5094669;27;45434;-72
2022/01/31 04:54:13;;;;;;;;;1.00;1.00;;;;;10.03;65.74;101426.56;5099095;27;45768;-73
2022/01/31 04:56:41;;;;;;;;;2.33;1.33;;;;;10.13;65.61;101450.94;5067986;27;45320;-74
2022/01/31 04:59:06;;;;;;;;;2.00;1.00;;;;;10.16;65.72;101452.47;5094038;27;45445;-73
2022/01/31 05:01:32;;;;;;;;;1.00;0.67;;;;;10.19;64.44;101460.31;5093441;27;45852;-72
2022/01/31 05:03:57;;;;;;;;;0.00;0.00;;;;;10.21;64.40;101463.72;5075136;28;45721;-75
2022/01/31 05:06:31;;;;;;;;;1.00;1.00;;;;;10.20;63.73;101462.03;5095273;27;45653;-74
2022/01/31 05:08:56;;;;;;;;;5.33;1.00;;;;;10.24;62.86;101477.06;5081731;27;45608;-75
2022/01/31 05:11:22;;;;;;;;;1.00;1.00;;;;;10.24;62.34;101491.59;5080145;27;45335;-72
2022/01/31 05:13:47;;;;;;;;;3.00;0.67;;;;;10.22;60.80;101495.56;5098669;27;45394;-74
2022/01/31 05:16:13;;;;;;;;;1.00;1.00;;;;;10.13;59.91;101489.31;5072179;27;45428;-73
2022/01/31 05:18:38;;;;;;;;;1.67;0.33;;;;;10.10;59.73;101484.22;5098878;27;45693;-73
2022/01/31 05:21:05;;;;;;;;;1.00;1.00;;;;;10.11;59.68;101502.38;5098423;27;46643;-73
2022/01/31 05:23:32;;;;;;;;;2.00;2.00;;;;;10.08;59.09;101489.88;5098500;27;45494;-71
2022/01/31 05:25:57;;;;;;;;;2.00;1.33;;;;;10.07;59.08;101495.53;5091239;27;45561;-72
2022/01/31 05:28:23;;;;;;;;;0.33;0.00;;;;;10.00;58.98;101492.72;5089108;27;46172;-72
2022/01/31 05:30:48;;;;;;;;;0.67;0.67;;;;;10.11;58.91;101502.38;5079794;27;48162;-73
2022/01/31 05:33:14;;;;;;;;;1.33;0.33;;;;;10.11;58.92;101502.38;5077646;27;45479;-71
2022/01/31 05:35:39;;;;;;;;;1.00;0.33;;;;;10.08;58.84;101494.53;5096864;27;45374;-72
2022/01/31 05:38:05;;;;;;;;;0.00;0.00;;;;;10.07;59.09;101499.16;5088858;27;45889;-71
2022/01/31 05:40:30;;;;;;;;;1.00;1.00;;;;;10.07;58.96;101496.41;5094029;27;46284;-72
2022/01/31 05:42:56;;;;;;;;;2.00;1.00;;;;;10.01;58.25;101491.66;5079126;27;45695;-73
2022/01/31 05:45:22;;;;;;;;;0.67;0.00;;;;;9.93;58.14;101490.91;5091643;27;45857;-74
2022/01/31 05:47:47;;;;;;;;;2.00;0.00;;;;;9.88;57.59;101499.69;5079714;28;45595;-75
2022/01/31 05:50:13;;;;;;;;;2.00;1.00;;;;;9.84;57.65;101501.94;5098893;27;46733;-73
2022/01/31 05:52:38;;;;;;;;;2.00;1.00;;;;;9.76;57.78;101492.94;5101404;27;45469;-76
2022/01/31 05:55:04;;;;;;;;;1.00;1.00;;;;;9.80;57.63;101489.63;5104024;27;45158;-75
2022/01/31 05:57:32;;;;;;;;;1.00;1.00;;;;;9.77;57.79;101489.16;5098153;27;45737;-75
2022/01/31 05:59:58;;;;;;;;;3.33;1.67;;;;;9.73;57.92;101483.22;5109756;27;45477;-77
2022/01/31 06:02:23;;;;;;;;;2.67;1.00;;;;;9.71;57.91;101488.00;5105168;27;45341;-76
2022/01/31 06:04:49;;;;;;;;;1.00;1.00;;;;;9.70;57.73;101483.56;5099639;27;45173;-75
2022/01/31 06:07:15;;;;;;;;;4.00;1.33;;;;;9.64;57.48;101485.19;5090235;27;46179;-75
2022/01/31 06:09:40;;;;;;;;;3.67;1.00;;;;;9.62;58.22;101503.66;5105081;27;45226;-75
2022/01/31 06:12:06;;;;;;;;;1.00;1.00;;;;;9.57;57.24;101514.34;5101533;27;45654;-75
2022/01/31 06:14:32;;;;;;;;;2.67;1.67;;;;;9.48;57.62;101504.47;5106902;27;45245;-74
2022/01/31 06:16:59;;;;;;;;;2.67;0.67;;;;;9.49;58.44;101508.91;5106677;27;45404;-76
2022/01/31 06:19:24;;;;;;;;;1.33;1.33;;;;;9.45;57.35;101505.69;5104496;27;45433;-76
2022/01/31 06:21:50;;;;;;;;;3.67;2.00;;;;;9.48;57.99;101519.00;5086139;27;45439;-76
2022/01/31 06:24:15;;;;;;;;;2.00;1.67;;;;;9.45;57.94;101496.63;5095567;27;45650;-76
2022/01/31 06:26:41;;;;;;;;;2.00;2.00;;;;;9.44;57.45;101500.41;5061978;27;46723;-72
2022/01/31 06:29:07;;;;;;;;;0.00;0.00;;;;;9.42;57.68;101497.00;5083016;27;46604;-73
2022/01/31 06:31:33;;;;;;;;;2.67;1.67;;;;;9.39;57.35;101500.09;5094114;27;45819;-74
2022/01/31 06:34:02;;;;;;;;;1.33;1.00;;;;;9.31;57.42;101501.88;5099475;27;45721;-77
2022/01/31 06:36:29;;;;;;;;;7.67;2.00;;;;;9.32;57.56;101494.50;5093094;27;45620;-74
2022/01/31 06:38:54;;;;;;;;;1.00;1.00;;;;;9.33;57.44;101497.06;5096644;27;45769;-72
2022/01/31 06:41:20;;;;;;;;;2.00;2.00;;;;;9.29;57.44;101501.19;5091560;27;45428;-72
2022/01/31 06:43:47;;;;;;;;;1.67;1.00;;;;;9.30;57.19;101511.09;5075575;27;45868;-73
2022/01/31 06:46:14;;;;;;;;;1.00;1.00;;;;;9.29;56.73;101509.38;5086444;27;45902;-72
2022/01/31 06:48:40;;;;;;;;;2.33;0.67;;;;;9.28;57.19;101526.00;5089912;27;46375;-72
2022/01/31 06:51:05;;;;;;;;;1.33;1.00;;;;;9.26;56.89;101534.38;5089718;27;45405;-72
2022/01/31 06:53:31;;;;;;;;;1.00;1.00;;;;;9.27;56.82;101530.63;5088805;27;45863;-73
2022/01/31 06:55:57;;;;;;;;;2.00;2.00;;;;;9.18;56.97;101518.03;5050847;27;45993;-73
2022/01/31 06:58:26;;;;;;;;;4.33;1.67;;;;;9.24;56.69;101528.25;5090181;27;45551;-72
2022/01/31 07:00:51;;;;;;;;;2.00;2.00;;;;;9.24;56.31;101535.63;5087870;27;45737;-72
2022/01/31 07:03:17;;;;;;;;;1.00;1.00;;;;;9.18;56.90;101543.50;5076485;27;45412;-70
2022/01/31 07:05:44;;;;;;;;;1.00;1.00;;;;;9.18;56.24;101548.13;5094978;27;45438;-76
2022/01/31 07:08:11;;;;;;;;;2.00;0.33;;;;;9.15;55.78;101538.41;5090556;27;45922;-71
2022/01/31 07:10:37;;;;;;;;;2.33;0.67;;;;;9.16;55.92;101541.97;5069600;28;46128;-71
2022/01/31 07:13:11;;;;;;;;;2.00;2.00;;;;;9.12;55.70;101529.72;5066668;27;45374;-72
2022/01/31 07:15:37;;;;;;;;;1.33;1.33;;;;;9.11;56.85;101538.94;5067158;28;45668;-74
2022/01/31 07:18:03;;;;;;;;;2.00;1.00;;;;;9.10;55.59;101542.69;5067875;27;45374;-72
2022/01/31 07:20:40;;;;;;;;;1.67;1.67;;;;;9.08;56.25;101542.88;5070082;27;46040;-70
2022/01/31 07:23:26;;;;;;;;;2.33;1.33;;;;;9.14;55.78;101555.00;5069944;28;45567;-72
2022/01/31 07:25:51;;;;;;;;;1.33;1.00;;;;;9.11;56.01;101560.81;5070833;28;45768;-76
2022/01/31 07:28:17;;;;;;;;;2.00;1.00;;;;;9.13;56.86;101559.63;5078821;28;45473;-73
2022/01/31 07:30:52;;;;;;;;;2.00;0.67;;;;;9.17;55.99;101560.94;5071953;27;45499;-75
2022/01/31 07:33:18;;;;;;;;;2.33;1.33;;;;;9.21;55.91;101553.25;5080396;27;45428;-73
2022/01/31 07:35:47;;;;;;;;;2.00;1.00;;;;;9.26;55.92;101559.03;5069776;28;45219;-74
2022/01/31 07:38:13;;;;;;;;;1.00;1.00;;;;;9.39;56.55;101568.56;5079344;27;45361;-77
2022/01/31 07:40:39;;;;;;;;;3.00;1.00;;;;;9.47;55.60;101576.69;5058472;28;45584;-77
2022/01/31 07:43:05;;;;;;;;;0.00;0.00;;;;;9.55;55.43;101571.19;5075090;28;44772;-78
2022/01/31 07:45:31;;;;;;;;;2.00;1.00;;;;;9.67;55.35;101579.78;5084253;27;45657;-76
2022/01/31 07:47:57;;;;;;;;;2.33;1.00;;;;;9.77;54.79;101591.38;5073671;27;45859;-76
2022/01/31 07:50:22;;;;;;;;;0.00;0.00;;;;;9.88;54.31;101587.38;5069977;28;45814;-80
2022/01/31 07:52:48;;;;;;;;;1.67;1.00;;;;;9.95;54.04;101571.88;5083397;28;45517;-75
2022/01/31 07:55:13;;;;;;;;;3.00;3.00;;;;;10.04;54.01;101579.00;5082589;28;45441;-75
2022/01/31 07:57:41;;;;;;;;;6.33;5.00;;;;;10.10;53.57;101590.25;5083232;27;45227;-73
2022/01/31 08:00:08;;;;;;;;;6.33;3.00;;;;;10.16;54.02;101589.50;5073534;28;45455;-75
2022/01/31 08:02:34;;;;;;;;;1.00;1.00;;;;;10.14;53.42;101599.81;5076397;28;45856;-75
2022/01/31 08:04:59;;;;;;;;;6.00;2.67;;;;;10.20;53.58;101607.31;5080044;28;44935;-76
2022/01/31 08:07:25;;;;;;;;;1.33;1.33;;;;;10.23;53.31;101617.91;5084190;28;46740;-75
2022/01/31 08:09:51;;;;;;;;;10.00;6.00;;;;;10.27;53.84;101611.00;5073076;28;45809;-75
2022/01/31 08:12:16;;;;;;;;;2.33;1.00;;;;;10.32;53.23;101615.94;5087975;27;45444;-75
2022/01/31 08:14:43;;;;;;;;;2.67;1.00;;;;;10.42;52.73;101627.53;5075425;28;45797;-75
2022/01/31 08:17:09;;;;;;;;;4.67;4.67;;;;;10.50;53.28;101621.09;5081379;27;46055;-77
2022/01/31 08:19:34;;;;;;;;;1.00;1.00;;;;;10.57;52.71;101627.56;5064247;28;45481;-76
2022/01/31 08:22:00;;;;;;;;;2.67;1.00;;;;;10.63;53.11;101634.16;5080027;28;45372;-77
2022/01/31 08:24:26;;;;;;;;;3.00;3.00;;;;;10.70;52.79;101640.59;5076115;28;45357;-76
2022/01/31 08:26:51;;;;;;;;;2.00;1.00;;;;;10.73;52.90;101618.28;5082905;28;45369;-76
2022/01/31 08:29:34;;;;;;;;;4.00;2.00;;;;;10.67;52.04;101613.53;5077861;28;45733;-79
2022/01/31 08:32:05;;;;;;;;;2.67;1.00;;;;;10.70;51.78;101605.81;5075204;28;45433;-75
2022/01/31 08:37:14;;;;;;;;;11.67;9.33;;;;;10.82;51.97;101630.00;5076889;28;45780;-72
2022/01/31 08:39:41;;;;;;;;;2.00;2.00;;;;;10.85;51.77;101618.66;5074336;27;45555;-71
2022/01/31 08:42:07;;;;;;;;;2.33;1.67;;;;;10.91;52.05;101624.25;5055425;28;45453;-69
2022/01/31 08:44:32;;;;;;;;;3.00;3.00;;;;;10.95;51.92;101616.47;5069743;28;45659;-71
2022/01/31 08:46:58;;;;;;;;;9.00;4.00;;;;;11.00;52.10;101615.91;5074317;27;45878;-70
2022/01/31 08:49:23;;;;;;;;;7.33;4.67;;;;;11.04;51.81;101644.69;5069696;27;45808;-71
2022/01/31 08:51:49;;;;;;;;;4.67;2.00;;;;;11.06;51.04;101632.50;5072603;28;45757;-71
2022/01/31 08:54:15;;;;;;;;;1.67;1.67;;;;;11.07;52.14;101661.63;5074988;27;45748;-70
2022/01/31 08:56:44;;;;;;;;;2.00;2.00;;;;;11.09;50.95;101654.06;5066025;28;47132;-71
2022/01/31 08:59:17;;;;;;;;;3.00;3.00;;;;;11.25;51.79;101663.97;5074798;28;45426;-71
2022/01/31 09:01:43;;;;;;;;;2.33;2.00;;;;;11.42;50.76;101653.66;5079882;28;45373;-76
2022/01/31 09:04:12;;;;;;;;;2.00;1.00;;;;;11.55;49.54;101644.69;5074599;27;45845;-74
2022/01/31 09:06:37;;;;;;;;;3.00;1.33;;;;;11.83;49.04;101650.31;5069132;27;46272;-73
2022/01/31 09:09:08;;;;;;;;;5.33;2.67;;;;;12.06;48.73;101637.47;5078120;28;45397;-75
2022/01/31 09:11:36;;;;;;;;;4.33;4.00;;;;;12.22;47.86;101606.94;5072610;28;45607;-75
2022/01/31 09:14:03;;;;;;;;;4.00;2.00;;;;;12.34;48.05;101605.34;5077282;27;45349;-76
2022/01/31 09:16:28;;;;;;;;;5.00;4.00;;;;;12.46;48.44;101611.13;5076787;28;45686;-76
2022/01/31 09:18:54;;;;;;;;;6.67;3.00;;;;;12.64;46.93;101605.13;5074516;27;45710;-76
2022/01/31 09:21:20;;;;;;;;;3.00;3.00;;;;;12.81;46.67;101600.13;5074514;28;45460;-76
2022/01/31 09:23:51;;;;;;;;;5.67;3.00;;;;;12.84;46.37;101615.41;5084304;27;45879;-75
2022/01/31 09:26:18;;;;;;;;;2.33;2.33;;;;;12.84;46.92;101620.91;5079146;27;46351;-74
2022/01/31 09:28:44;;;;;;;;;5.67;3.67;;;;;12.88;46.51;101606.53;5073918;28;45406;-76
2022/01/31 09:31:09;;;;;;;;;3.00;3.00;;;;;12.91;45.87;101612.72;5072576;28;45716;-71
2022/01/31 09:33:35;;;;;;;;;3.33;3.33;;;;;13.32;45.61;101604.41;5073595;27;45578;-71
2022/01/31 09:36:00;;;;;;;;;3.67;2.00;;;;;14.25;43.57;101606.56;5073687;27;45518;-76
2022/01/31 09:38:26;;;;;;;;;5.00;4.00;;;;;15.07;42.25;101622.78;5081098;28;45543;-74
2022/01/31 09:40:54;;;;;;;;;1.00;1.00;;;;;15.52;40.61;101613.69;5080474;27;45279;-74
2022/01/31 09:45:57;;;;;;;;;3.00;0.67;;;;;15.24;42.27;101623.16;5076141;27;45409;-74
2022/01/31 09:48:32;;;;;;;;;5.33;3.00;;;;;15.05;41.54;101632.38;5074260;28;45633;-70
2022/01/31 09:51:18;;;;;;;;;2.67;1.67;;;;;14.80;41.13;101627.53;5067823;28;45608;-71
2022/01/31 09:53:44;;;;;;;;;3.67;1.67;;;;;14.57;40.65;101628.81;5069221;27;45390;-71
2022/01/31 09:56:12;;;;;;;;;4.00;2.67;;;;;14.34;42.55;101631.16;5060913;28;45756;-69
2022/01/31 09:58:39;;;;;;;;;2.00;1.00;;;;;14.12;41.82;101632.22;5070854;28;45394;-70
2022/01/31 10:01:09;;;;;;;;;5.00;2.00;;;;;13.93;43.02;101644.91;5068919;28;45307;-76
2022/01/31 10:03:51;;;;;;;;;3.00;1.67;;;;;14.54;42.78;101644.97;5082495;27;45690;-77
2022/01/31 10:06:29;;;;;;;;;4.33;1.67;;;;;14.89;40.38;101669.59;5079030;27;45129;-75
2022/01/31 10:09:08;;;;;;;;;12.67;6.67;;;;;15.52;39.23;101658.78;5072301;28;45391;-75
2022/01/31 10:11:49;;;;;;;;;1.67;1.00;;;;;15.88;38.90;101664.78;5092886;27;46394;-75
2022/01/31 10:17:21;;;;;;;;;1.67;1.67;;;;;15.51;38.97;101667.28;5087114;27;45437;-72
2022/01/31 10:19:47;;;;;;;;;1.33;1.33;;;;;15.47;38.53;101641.16;5072635;27;45369;-71
2022/01/31 10:22:17;;;;;;;;;1.67;0.67;;;;;15.17;38.67;101666.56;5059417;28;45495;-72
2022/01/31 10:24:46;;;;;;;;;2.33;1.33;;;;;14.87;38.49;101668.97;5070328;27;45693;-71
2022/01/31 10:27:18;;;;;;;;;3.33;1.67;;;;;14.32;40.95;101671.91;5083741;27;46546;-70
2022/01/31 10:29:46;;;;;;;;;1.67;1.00;;;;;13.83;42.20;101688.59;5075651;27;45594;-70
2022/01/31 10:32:26;;;;;;;;;1.00;0.67;;;;;13.45;42.75;101667.03;5098889;27;45691;-75
2022/01/31 10:34:55;;;;;;;;;5.00;3.33;;;;;13.17;42.67;101676.19;5101181;27;45938;-75
2022/01/31 10:37:23;;;;;;;;;1.67;1.00;;;;;13.35;42.54;101680.34;5075363;27;48199;-69
2022/01/31 10:53:47;;;;;;;;;3.00;2.00;;;;;13.59;40.72;101701.00;5085441;27;45710;-71
2022/01/31 10:56:13;;;;;;;;;1.00;1.00;;;;;13.20;41.03;101699.72;5094335;27;45862;-70
2022/01/31 10:58:57;;;;;;;;;3.33;1.00;;;;;13.20;40.78;101694.19;5091861;27;46235;-72
2022/01/31 11:01:23;;;;;;;;;1.00;1.00;;;;;13.21;41.15;101676.63;5095333;27;45520;-71
2022/01/31 11:03:49;;;;;;;;;1.00;1.00;;;;;13.11;39.63;101678.91;5094796;27;45448;-71
2022/01/31 11:06:14;;;;;;;;;1.67;1.67;;;;;12.85;39.78;101697.78;5094970;27;45841;-72
2022/01/31 11:08:40;;;;;;;;;2.67;1.67;;;;;12.51;40.98;101690.31;5091997;27;46186;-71
2022/01/31 11:11:06;;;;;;;;;1.00;1.00;;;;;12.40;41.91;101705.47;5080427;27;45687;-74
2022/01/31 11:13:34;;;;;;;;;2.00;1.00;;;;;12.21;41.10;101700.63;5073869;27;45815;-74
2022/01/31 11:16:00;;;;;;;;;3.00;1.00;;;;;12.42;41.38;101691.53;5094888;27;45408;-73
2022/01/31 11:18:29;;;;;;;;;2.00;1.00;;;;;12.63;42.25;101682.38;5095323;27;45425;-75
2022/01/31 11:21:06;;;;;;;;;1.33;1.33;;;;;12.66;42.20;101693.84;5101822;27;45742;-76
2022/01/31 11:23:39;;;;;;;;;3.00;2.00;;;;;12.57;42.04;101719.78;5094774;27;44913;-76
2022/01/31 11:26:07;;;;;;;;;2.00;2.00;;;;;12.29;45.35;101709.63;5096503;27;46588;-76
2022/01/31 11:28:35;;;;;;;;;24.00;18.33;;;;;12.02;46.34;101711.25;5099315;27;45735;-77
2022/01/31 11:31:02;;;;;;;;;38.00;33.00;;;;;11.83;46.25;101697.03;5094355;27;46194;-76
2022/01/31 11:33:28;;;;;;;;;2.67;1.67;;;;;11.73;46.15;101701.13;5097545;27;45452;-77
2022/01/31 11:35:54;;;;;;;;;1.67;1.67;;;;;11.61;46.27;101696.13;5097829;27;46055;-77
2022/01/31 11:38:21;;;;;;;;;2.33;2.33;;;;;11.53;46.47;101700.91;5082928;27;45696;-72
2022/01/31 11:40:47;;;;;;;;;4.00;2.00;;;;;11.64;45.88;101703.97;5087803;27;45777;-73
2022/01/31 11:43:15;;;;;;;;;1.33;1.33;;;;;11.73;46.09;101703.88;5086379;27;45644;-73
2022/01/31 11:45:42;;;;;;;;;3.33;2.00;;;;;11.76;45.96;101706.25;5083983;27;45938;-70
2022/01/31 11:48:26;;;;;;;;;4.00;2.67;;;;;11.72;46.36;101721.41;5083899;27;45881;-71
2022/01/31 11:50:55;;;;;;;;;5.00;2.33;;;;;11.58;47.96;101723.16;5086848;27;45888;-72
2022/01/31 11:53:35;;;;;;;;;3.67;2.67;;;;;10.86;60.89;101809.72;5091106;27;45532;-72